createdAt,value
2018-12-27T00:00:56.401Z,-0.30
2018-12-27T00:03:36.329Z,-0.20
2018-12-27T00:06:16.466Z,-0.10
2018-12-27T00:08:56.742Z,-0.10
2018-12-27T00:11:36.645Z,-0.20
2018-12-27T00:14:16.835Z,-0.20
2018-12-27T00:16:56.946Z,-0.40
2018-12-27T00:19:37.241Z,-0.40
2018-12-27T00:22:17.224Z,-0.60
2018-12-27T00:24:57.337Z,-0.70
2018-12-27T00:27:37.059Z,-0.70
2018-12-27T00:30:17.146Z,-0.70
2018-12-27T00:33:03.147Z,-0.70
2018-12-27T00:35:39.301Z,-0.70
2018-12-27T00:38:19.201Z,-0.70
2018-12-27T00:40:59.461Z,-0.70
2018-12-27T00:43:39.629Z,-0.60
2018-12-27T00:46:19.693Z,-0.60
2018-12-27T00:48:59.434Z,-0.60
2018-12-27T00:51:39.580Z,-0.60
2018-12-27T00:54:19.452Z,-0.70
2018-12-27T00:56:59.729Z,-0.60
2018-12-27T00:59:39.611Z,-0.50
2018-12-27T01:02:19.752Z,-0.40
2018-12-27T01:04:59.680Z,-0.30
2018-12-27T01:07:39.717Z,-0.20
2018-12-27T01:10:19.509Z,-0.20
2018-12-27T01:12:59.585Z,-0.30
2018-12-27T01:15:39.942Z,-0.30
2018-12-27T01:18:20.025Z,-0.30
2018-12-27T01:21:00.170Z,-0.30
2018-12-27T01:23:40.372Z,-0.30
2018-12-27T01:26:20.293Z,-0.40
2018-12-27T01:29:00.777Z,-0.40
2018-12-27T01:31:40.617Z,-0.50
2018-12-27T01:34:20.762Z,-0.50
2018-12-27T01:37:00.681Z,-0.40
2018-12-27T01:39:40.710Z,-0.30
2018-12-27T01:42:20.613Z,-0.20
2018-12-27T01:45:00.728Z,-0.10
2018-12-27T01:47:40.870Z,0.00
2018-12-27T01:50:21.118Z,0.00
2018-12-27T01:53:01.373Z,0.00
2018-12-27T01:55:41.597Z,0.00
2018-12-27T01:58:21.517Z,0.00
2018-12-27T02:01:01.778Z,0.00
2018-12-27T02:03:41.625Z,-0.10
2018-12-27T02:06:22.003Z,-0.20
2018-12-27T02:09:02.005Z,-0.20
2018-12-27T02:11:42.105Z,-0.20
2018-12-27T02:14:21.966Z,-0.20
2018-12-27T02:17:01.980Z,-0.20
2018-12-27T02:19:42.215Z,-0.20
2018-12-27T02:22:22.309Z,-0.20
2018-12-27T02:25:02.492Z,-0.20
2018-12-27T02:27:42.410Z,-0.20
2018-12-27T02:30:22.571Z,-0.30
2018-12-27T02:33:02.404Z,-0.30
2018-12-27T02:35:42.610Z,-0.40
2018-12-27T02:38:22.577Z,-0.40
2018-12-27T02:41:02.730Z,-0.40
2018-12-27T02:43:42.498Z,-0.40
2018-12-27T02:46:22.877Z,-0.30
2018-12-27T02:49:03.050Z,-0.30
2018-12-27T02:51:43.185Z,-0.30
2018-12-27T02:54:23.117Z,-0.30
2018-12-27T02:57:03.124Z,-0.40
2018-12-27T02:59:43.363Z,-0.40
2018-12-27T03:02:23.585Z,-0.50
2018-12-27T03:05:03.587Z,-0.50
2018-12-27T03:07:43.485Z,-0.60
2018-12-27T03:10:23.257Z,-0.70
2018-12-27T03:13:03.441Z,-0.60
2018-12-27T03:15:43.521Z,-0.60
2018-12-27T03:18:23.497Z,-0.50
2018-12-27T03:21:03.382Z,-0.50
2018-12-27T03:23:43.413Z,-0.40
2018-12-27T03:26:23.429Z,-0.40
2018-12-27T03:29:03.696Z,-0.40
2018-12-27T03:31:43.522Z,-0.40
2018-12-27T03:34:23.554Z,-0.50
2018-12-27T03:37:03.565Z,-0.50
2018-12-27T03:39:43.572Z,-0.50
2018-12-27T03:42:23.548Z,-0.60
2018-12-27T03:45:03.680Z,-0.60
2018-12-27T03:47:43.649Z,-0.60
2018-12-27T03:50:23.918Z,-0.60
2018-12-27T03:53:03.853Z,-0.60
2018-12-27T03:55:43.994Z,-0.40
2018-12-27T03:58:23.908Z,-0.40
2018-12-27T04:01:03.857Z,-0.30
2018-12-27T04:03:43.762Z,-0.30
2018-12-27T04:06:23.935Z,-0.30
2018-12-27T04:09:04.097Z,-0.40
2018-12-27T04:11:44.033Z,-0.50
2018-12-27T04:14:23.880Z,-0.60
2018-12-27T04:17:04.013Z,-0.70
2018-12-27T04:19:43.861Z,-0.80
2018-12-27T04:22:24.208Z,-0.90
2018-12-27T04:25:04.058Z,-0.90
2018-12-27T04:27:44.351Z,-0.80
2018-12-27T04:30:24.230Z,-0.80
2018-12-27T04:36:26.640Z,-0.70
2018-12-27T04:39:06.550Z,-0.70
2018-12-27T04:41:46.621Z,-0.80
2018-12-27T04:44:26.764Z,-0.70
2018-12-27T04:47:06.780Z,-0.70
2018-12-27T04:49:46.977Z,-0.70
2018-12-27T04:52:26.918Z,-0.70
2018-12-27T04:55:07.277Z,-0.70
2018-12-27T04:57:47.252Z,-0.60
2018-12-27T05:00:27.344Z,-0.60
2018-12-27T05:03:07.433Z,-0.60
2018-12-27T05:05:47.510Z,-0.70
2018-12-27T05:08:27.401Z,-0.70
2018-12-27T05:11:07.316Z,-0.70
2018-12-27T05:13:47.257Z,-0.60
2018-12-27T05:16:27.508Z,-0.60
2018-12-27T05:19:07.771Z,-0.70
2018-12-27T05:21:47.693Z,-0.70
2018-12-27T05:24:27.888Z,-0.70
2018-12-27T05:27:07.993Z,-0.80
2018-12-27T05:29:47.985Z,-1.00
2018-12-27T05:32:28.119Z,-1.00
2018-12-27T05:35:08.405Z,-1.00
2018-12-27T05:37:48.458Z,-1.00
2018-12-27T05:40:28.352Z,-1.00
2018-12-27T05:43:08.117Z,-1.00
2018-12-27T05:45:48.112Z,-1.00
2018-12-27T05:48:28.352Z,-1.10
2018-12-27T05:51:08.276Z,-1.10
2018-12-27T05:53:48.335Z,-1.20
2018-12-27T05:56:28.344Z,-1.20
2018-12-27T05:59:08.300Z,-1.20
2018-12-27T06:01:48.588Z,-1.10
2018-12-27T06:04:33.799Z,-1.10
2018-12-27T06:07:10.783Z,-1.00
2018-12-27T06:09:50.669Z,-1.00
2018-12-27T06:12:30.721Z,-1.00
2018-12-27T06:15:10.682Z,-0.90
2018-12-27T06:17:50.712Z,-0.90
2018-12-27T06:20:30.733Z,-0.90
2018-12-27T06:23:10.889Z,-0.80
2018-12-27T06:25:50.712Z,-0.70
2018-12-27T06:28:30.872Z,-0.60
2018-12-27T06:31:10.733Z,-0.60
2018-12-27T06:33:50.838Z,-0.50
2018-12-27T06:36:30.809Z,-0.50
2018-12-27T06:39:10.988Z,-0.40
2018-12-27T06:41:50.761Z,-0.30
2018-12-27T06:44:30.664Z,-0.30
2018-12-27T06:47:10.784Z,-0.30
2018-12-27T06:49:50.774Z,-0.20
2018-12-27T06:52:30.788Z,-0.20
2018-12-27T06:55:10.956Z,-0.20
2018-12-27T06:57:50.873Z,-0.20
2018-12-27T07:00:30.985Z,-0.30
2018-12-27T07:03:10.833Z,-0.20
2018-12-27T07:05:51.113Z,-0.30
2018-12-27T07:08:31.212Z,-0.30
2018-12-27T07:11:11.162Z,-0.30
2018-12-27T07:13:51.309Z,-0.30
2018-12-27T07:16:31.286Z,-0.20
2018-12-27T07:19:11.441Z,-0.20
2018-12-27T07:21:51.574Z,-0.30
2018-12-27T07:24:31.678Z,-0.20
2018-12-27T07:27:11.352Z,-0.20
2018-12-27T07:29:51.525Z,-0.20
2018-12-27T07:32:31.495Z,-0.20
2018-12-27T07:35:11.741Z,-0.30
2018-12-27T07:37:51.688Z,-0.30
2018-12-27T07:40:31.572Z,-0.20
2018-12-27T07:43:11.612Z,-0.20
2018-12-27T07:45:51.604Z,-0.30
2018-12-27T07:48:31.581Z,-0.20
2018-12-27T07:51:11.581Z,-0.30
2018-12-27T07:53:51.672Z,-0.40
2018-12-27T07:56:31.708Z,-0.40
2018-12-27T07:59:11.765Z,-0.50
2018-12-27T08:01:51.900Z,-0.40
2018-12-27T08:04:32.121Z,-0.40
2018-12-27T08:07:12.045Z,-0.40
2018-12-27T08:09:51.952Z,-0.40
2018-12-27T08:12:32.181Z,-0.40
2018-12-27T08:15:11.890Z,-0.50
2018-12-27T08:17:51.926Z,-0.50
2018-12-27T08:20:32.047Z,-0.60
2018-12-27T08:23:11.901Z,-0.50
2018-12-27T08:25:51.962Z,-0.50
2018-12-27T08:28:31.760Z,-0.50
2018-12-27T08:31:11.980Z,-0.40
2018-12-27T08:33:52.198Z,-0.50
2018-12-27T08:36:32.379Z,-0.50
2018-12-27T08:39:12.089Z,-0.50
2018-12-27T08:41:52.052Z,-0.50
2018-12-27T08:44:31.929Z,-0.50
2018-12-27T08:47:12.455Z,-0.40
2018-12-27T08:49:52.075Z,-0.40
2018-12-27T08:52:32.201Z,-0.30
2018-12-27T08:55:12.070Z,-0.10
2018-12-27T08:57:52.213Z,0.00
2018-12-27T09:00:32.259Z,0.10
2018-12-27T09:03:12.475Z,0.10
2018-12-27T09:05:52.352Z,0.10
2018-12-27T09:08:32.500Z,0.10
2018-12-27T09:11:12.703Z,0.10
2018-12-27T09:13:55.815Z,0.20
2018-12-27T09:16:37.312Z,0.20
2018-12-27T09:19:16.780Z,0.30
2018-12-27T09:21:56.785Z,0.30
2018-12-27T09:24:36.793Z,0.30
2018-12-27T09:27:16.545Z,0.40
2018-12-27T09:29:56.646Z,0.30
2018-12-27T09:32:36.630Z,0.40
2018-12-27T09:35:16.816Z,0.40
2018-12-27T09:37:56.692Z,0.50
2018-12-27T09:40:36.817Z,0.50
2018-12-27T09:43:16.727Z,0.60
2018-12-27T09:45:56.755Z,0.80
2018-12-27T09:48:36.894Z,0.90
2018-12-27T09:51:16.815Z,1.00
2018-12-27T09:53:56.731Z,1.00
2018-12-27T09:56:36.927Z,1.00
2018-12-27T09:59:16.783Z,1.10
2018-12-27T10:01:57.037Z,1.20
2018-12-27T10:04:37.025Z,1.30
2018-12-27T10:07:16.981Z,1.40
2018-12-27T10:09:57.250Z,1.60
2018-12-27T10:12:37.178Z,1.70
2018-12-27T10:15:17.118Z,1.70
2018-12-27T10:17:57.081Z,1.80
2018-12-27T10:20:37.106Z,1.90
2018-12-27T10:23:16.992Z,2.00
2018-12-27T10:25:57.280Z,1.90
2018-12-27T10:28:37.517Z,1.80
2018-12-27T10:31:17.692Z,1.80
2018-12-27T10:33:57.573Z,1.70
2018-12-27T10:36:37.860Z,1.70
2018-12-27T10:39:17.550Z,1.80
2018-12-27T10:41:57.490Z,1.90
2018-12-27T10:44:37.423Z,1.90
2018-12-27T10:47:17.556Z,1.90
2018-12-27T10:49:57.364Z,1.90
2018-12-27T10:52:37.694Z,2.00
2018-12-27T10:55:17.537Z,2.10
2018-12-27T10:57:57.788Z,2.20
2018-12-27T11:00:37.729Z,2.20
2018-12-27T11:03:17.774Z,2.30
2018-12-27T11:05:57.873Z,2.20
2018-12-27T11:08:38.206Z,2.50
2018-12-27T11:11:18.332Z,2.40
2018-12-27T11:13:58.510Z,2.50
2018-12-27T11:16:38.545Z,2.50
2018-12-27T11:19:18.577Z,2.50
2018-12-27T11:21:58.671Z,2.50
2018-12-27T11:24:38.972Z,2.60
2018-12-27T11:27:19.062Z,2.40
2018-12-27T11:29:59.161Z,2.40
2018-12-27T11:32:39.228Z,2.40
2018-12-27T11:35:19.293Z,2.60
2018-12-27T11:37:59.356Z,2.70
2018-12-27T11:40:39.619Z,2.70
2018-12-27T11:43:19.553Z,2.90
2018-12-27T11:45:59.821Z,3.00
2018-12-27T11:48:39.999Z,3.10
2018-12-27T11:51:20.021Z,3.10
2018-12-27T11:53:59.908Z,3.20
2018-12-27T11:56:40.207Z,3.20
2018-12-27T11:59:19.971Z,3.20
2018-12-27T12:02:00.004Z,3.20
2018-12-27T12:04:40.044Z,3.30
2018-12-27T12:07:19.865Z,3.40
2018-12-27T12:10:00.178Z,3.40
2018-12-27T12:12:41.020Z,3.40
2018-12-27T12:15:21.060Z,3.50
2018-12-27T12:18:00.916Z,3.70
2018-12-27T12:20:41.231Z,3.70
2018-12-27T12:23:21.271Z,3.80
2018-12-27T12:26:01.510Z,3.60
2018-12-27T12:28:41.514Z,3.80
2018-12-27T12:31:21.906Z,3.70
2018-12-27T12:34:01.720Z,3.50
2018-12-27T12:36:41.774Z,3.50
2018-12-27T12:39:21.740Z,3.60
2018-12-27T12:42:01.965Z,3.50
2018-12-27T12:44:41.867Z,3.50
2018-12-27T12:47:22.094Z,3.40
2018-12-27T12:50:02.185Z,3.30
2018-12-27T12:52:42.458Z,3.50
2018-12-27T12:55:22.471Z,3.50
2018-12-27T12:58:02.573Z,3.40
2018-12-27T13:00:42.534Z,3.60
2018-12-27T13:03:22.564Z,3.50
2018-12-27T13:06:02.738Z,3.70
2018-12-27T13:08:42.908Z,3.80
2018-12-27T13:11:22.828Z,3.90
2018-12-27T13:14:03.177Z,3.80
2018-12-27T13:16:43.161Z,3.80
2018-12-27T13:19:23.243Z,3.80
2018-12-27T13:22:03.091Z,3.70
2018-12-27T13:24:43.292Z,3.50
2018-12-27T13:27:23.377Z,3.30
2018-12-27T13:30:03.384Z,3.20
2018-12-27T13:32:43.611Z,3.20
2018-12-27T13:35:23.658Z,3.10
2018-12-27T13:38:03.660Z,3.00
2018-12-27T13:40:43.840Z,2.80
2018-12-27T13:43:23.730Z,2.70
2018-12-27T13:46:03.874Z,2.50
2018-12-27T13:48:43.914Z,2.50
2018-12-27T13:51:23.988Z,2.50
2018-12-27T13:54:04.047Z,2.50
2018-12-27T13:56:44.097Z,2.50
2018-12-27T13:59:24.209Z,2.50
2018-12-27T14:02:03.952Z,2.50
2018-12-27T14:04:43.945Z,2.50
2018-12-27T14:07:23.836Z,2.50
2018-12-27T14:10:03.793Z,2.50
2018-12-27T14:12:43.899Z,2.60
2018-12-27T14:15:23.982Z,2.50
2018-12-27T14:18:03.890Z,2.30
2018-12-27T14:20:43.951Z,2.30
2018-12-27T14:23:24.136Z,2.30
2018-12-27T14:26:04.108Z,2.30
2018-12-27T14:34:28.737Z,2.10
2018-12-27T14:37:08.757Z,2.00
2018-12-27T14:39:48.604Z,2.00
2018-12-27T14:42:28.709Z,1.90
2018-12-27T14:45:08.693Z,1.80
2018-12-27T14:47:48.933Z,1.80
2018-12-27T14:50:28.917Z,1.70
2018-12-27T14:53:08.806Z,1.70
2018-12-27T14:55:48.866Z,1.60
2018-12-27T14:58:28.769Z,1.70
2018-12-27T15:01:08.724Z,1.70
2018-12-27T15:03:48.690Z,1.70
2018-12-27T15:06:28.836Z,1.70
2018-12-27T15:09:08.671Z,1.70
2018-12-27T15:11:48.768Z,1.80
2018-12-27T15:14:28.940Z,2.00
2018-12-27T15:17:08.790Z,2.00
2018-12-27T15:19:48.936Z,2.10
2018-12-27T15:22:28.849Z,2.10
2018-12-27T15:25:08.946Z,2.10
2018-12-27T15:27:48.797Z,2.10
2018-12-27T15:30:28.796Z,2.10
2018-12-27T15:33:08.824Z,2.10
2018-12-27T15:35:49.350Z,2.10
2018-12-27T15:38:29.155Z,2.10
2018-12-27T15:41:09.279Z,2.00
2018-12-27T15:43:49.288Z,2.10
2018-12-27T15:46:29.517Z,2.10
2018-12-27T15:49:09.637Z,2.00
2018-12-27T15:51:49.744Z,1.90
2018-12-27T15:54:29.722Z,1.90
2018-12-27T15:57:09.789Z,1.90
2018-12-27T15:59:49.676Z,1.90
2018-12-27T16:02:29.794Z,1.80
2018-12-27T16:05:12.035Z,1.70
2018-12-27T16:07:51.720Z,1.60
2018-12-27T16:10:31.822Z,1.50
2018-12-27T16:13:11.730Z,1.40
2018-12-27T16:15:51.777Z,1.40
2018-12-27T16:18:31.741Z,1.30
2018-12-27T16:21:12.150Z,1.30
2018-12-27T16:23:52.101Z,1.20
2018-12-27T16:26:32.422Z,1.10
2018-12-27T16:29:12.077Z,1.10
2018-12-27T16:31:52.318Z,1.10
2018-12-27T16:34:32.447Z,1.10
2018-12-27T16:37:12.239Z,1.00
2018-12-27T16:39:52.186Z,1.10
2018-12-27T16:42:32.279Z,1.10
2018-12-27T16:45:12.413Z,1.20
2018-12-27T16:47:52.535Z,1.30
2018-12-27T16:50:32.667Z,1.40
2018-12-27T16:53:12.954Z,1.30
2018-12-27T16:55:52.790Z,1.30
2018-12-27T16:58:32.603Z,1.30
2018-12-27T17:01:12.410Z,1.30
2018-12-27T17:03:52.419Z,1.20
2018-12-27T17:06:32.575Z,1.30
2018-12-27T17:09:12.591Z,1.50
2018-12-27T17:11:52.579Z,1.60
2018-12-27T17:14:32.635Z,1.70
2018-12-27T17:17:12.601Z,1.80
2018-12-27T17:19:52.926Z,1.80
2018-12-27T17:22:32.834Z,1.80
2018-12-27T17:25:12.919Z,1.80
2018-12-27T17:27:52.828Z,1.80
2018-12-27T17:30:33.073Z,1.80
2018-12-27T17:33:12.914Z,1.70
2018-12-27T17:35:52.798Z,1.70
2018-12-27T17:38:32.557Z,1.70
2018-12-27T17:41:12.847Z,1.70
2018-12-27T17:43:52.986Z,1.70
2018-12-27T17:46:33.032Z,1.70
2018-12-27T17:49:12.961Z,1.70
2018-12-27T17:51:53.100Z,1.70
2018-12-27T17:54:33.182Z,1.70
2018-12-27T17:57:13.294Z,1.60
2018-12-27T17:59:53.174Z,1.60
2018-12-27T18:02:34.390Z,1.60
2018-12-27T18:05:14.579Z,1.60
2018-12-27T18:07:54.510Z,1.60
2018-12-27T18:10:34.633Z,1.60
2018-12-27T18:13:14.521Z,1.50
2018-12-27T18:15:54.819Z,1.60
2018-12-27T18:18:34.601Z,1.50
2018-12-27T18:21:14.771Z,1.30
2018-12-27T18:23:54.730Z,1.40
2018-12-27T18:26:34.986Z,1.40
2018-12-27T18:29:14.918Z,1.40
2018-12-27T18:31:54.946Z,1.40
2018-12-27T18:34:34.981Z,1.40
2018-12-27T18:37:15.065Z,1.40
2018-12-27T18:39:55.359Z,1.30
2018-12-27T18:48:32.067Z,1.60
2018-12-27T18:51:12.097Z,1.40
2018-12-27T18:53:52.087Z,1.40
2018-12-27T18:56:32.030Z,1.30
2018-12-27T18:59:12.324Z,1.30
2018-12-27T19:01:52.256Z,1.30
2018-12-27T19:04:32.636Z,1.40
2018-12-27T19:07:12.483Z,1.30
2018-12-27T19:09:52.414Z,1.40
2018-12-27T19:12:32.267Z,1.40
2018-12-27T19:15:12.352Z,1.40
2018-12-27T19:17:52.311Z,1.40
2018-12-27T19:20:32.595Z,1.50
2018-12-27T19:23:12.503Z,1.40
2018-12-27T19:25:52.352Z,1.30
2018-12-27T19:28:32.438Z,1.30
2018-12-27T19:31:12.744Z,1.10
2018-12-27T19:33:52.867Z,1.20
2018-12-27T19:36:33.018Z,1.20
2018-12-27T19:39:13.136Z,1.10
2018-12-27T19:41:52.973Z,1.30
2018-12-27T19:44:33.065Z,1.30
2018-12-27T19:47:13.112Z,1.30
2018-12-27T19:49:53.358Z,1.30
2018-12-27T19:52:33.117Z,1.20
2018-12-27T19:55:13.184Z,1.20
2018-12-27T19:57:53.101Z,1.30
2018-12-27T20:00:33.217Z,1.20
2018-12-27T20:03:13.078Z,1.30
2018-12-27T20:05:53.114Z,1.40
2018-12-27T20:08:33.054Z,1.40
2018-12-27T20:11:13.188Z,1.40
2018-12-27T20:13:53.186Z,1.40
2018-12-27T20:16:33.262Z,1.40
2018-12-27T20:19:13.265Z,1.40
2018-12-27T20:21:53.489Z,1.30
2018-12-27T20:24:33.730Z,1.30
2018-12-27T20:27:13.620Z,1.30
2018-12-27T20:29:53.583Z,1.30
2018-12-27T20:32:33.597Z,1.30
2018-12-27T20:35:13.662Z,1.40
2018-12-27T20:37:53.592Z,1.30
2018-12-27T20:40:33.573Z,1.20
2018-12-27T20:43:13.562Z,1.20
2018-12-27T20:45:53.752Z,1.30
2018-12-27T20:51:34.872Z,1.30
2018-12-27T20:54:14.740Z,1.30
2018-12-27T20:56:54.855Z,1.30
2018-12-27T20:59:35.277Z,1.40
2018-12-27T21:02:15.204Z,1.40
2018-12-27T21:04:55.232Z,1.40
2018-12-27T21:07:35.220Z,1.40
2018-12-27T21:10:15.494Z,1.40
2018-12-27T21:12:55.537Z,1.40
2018-12-27T21:15:35.671Z,1.40
2018-12-27T21:21:11.966Z,1.20
2018-12-27T21:23:51.966Z,1.20
2018-12-27T21:26:32.210Z,0.90
2018-12-27T21:29:12.342Z,0.90
2018-12-27T21:31:52.417Z,0.90
2018-12-27T21:34:32.526Z,0.80
2018-12-27T21:37:12.841Z,0.80
2018-12-27T21:39:52.544Z,0.90
2018-12-27T21:42:32.538Z,0.80
2018-12-27T21:45:12.679Z,0.80
2018-12-27T21:47:52.564Z,0.90
2018-12-27T21:50:32.623Z,1.00
2018-12-27T21:53:12.588Z,0.90
2018-12-27T21:55:52.577Z,0.80
2018-12-27T21:58:32.690Z,0.70
2018-12-27T22:01:12.792Z,0.70
2018-12-27T22:03:52.976Z,0.60
2018-12-27T22:06:32.991Z,0.60
2018-12-27T22:09:13.026Z,0.60
2018-12-27T22:11:53.291Z,0.60
2018-12-27T22:14:33.272Z,0.30
2018-12-27T22:17:13.254Z,0.20
2018-12-27T22:19:53.173Z,0.20
2018-12-27T22:22:33.468Z,0.00
2018-12-27T22:25:13.448Z,0.00
2018-12-27T22:27:53.434Z,0.00
2018-12-27T22:30:33.465Z,0.00
2018-12-27T22:33:13.590Z,0.10
2018-12-27T22:35:53.548Z,0.20
2018-12-27T22:38:35.692Z,0.20
2018-12-27T22:41:15.777Z,0.00
2018-12-27T22:43:55.372Z,0.00
2018-12-27T22:46:35.600Z,0.00
2018-12-27T22:49:15.652Z,0.00
2018-12-27T22:51:55.718Z,0.10
2018-12-27T22:54:35.868Z,0.10
2018-12-27T22:57:15.829Z,0.10
2018-12-27T22:59:55.818Z,0.10
2018-12-27T23:02:35.721Z,0.20
2018-12-27T23:05:16.041Z,0.30
2018-12-27T23:07:55.955Z,0.30
2018-12-27T23:10:36.315Z,0.40
2018-12-27T23:13:16.316Z,0.40
2018-12-27T23:15:56.462Z,0.50
2018-12-27T23:18:36.653Z,0.40
2018-12-27T23:21:16.857Z,0.50
2018-12-27T23:23:57.106Z,0.60
2018-12-27T23:26:37.332Z,0.60
2018-12-27T23:29:17.417Z,0.60
2018-12-27T23:31:57.509Z,0.60
2018-12-27T23:34:37.529Z,0.70
2018-12-27T23:37:17.752Z,0.70
2018-12-27T23:39:57.812Z,0.80
2018-12-27T23:42:37.801Z,0.80
2018-12-27T23:45:18.037Z,0.80
2018-12-27T23:47:58.009Z,0.80
2018-12-27T23:50:38.241Z,0.70
2018-12-27T23:53:18.468Z,0.80
2018-12-27T23:55:58.196Z,0.70
2018-12-27T23:58:38.220Z,0.70
